Ar Rayyan, Qatar
Current Conditions -  °F | °C
As of 10:58 PM on Monday 26 Jan 2015 (Local Time) from KQIR Reporting Station
Haze Haze  
Wind Chill: 61°   Ceiling: Unl
Heat Index: 61°   Visibility: 6mi
Dew Point: 51°   Wind: 3mph
Humidity: 70%   Direction: 80°E
Pressure: 30.18"   Gusts: NA
Location:  25.32°N, 51.37°E
Report Text: KQIR 261958Z 08003KT 9000 BR CLR 16/11 A3018 RMK AO2A SLP222 T01610107
Loading
Personal Weather Stations






























Interactive Weather Map New forecast layout! Learn more

10-Day Weather Forecast

Advertisements
Track Severe Weather on mobile